Peruwelz, Belgium
Current Conditions -  °F | °C
As of 11:25 PM on Saturday 25 Oct 2014 (Local Time) from EBCV Reporting Station
Overcast Overcast  
Wind Chill: 52°   Ceiling: 4100
Heat Index: 52°   Visibility: 6mi
Dew Point: 48°   Wind: 5mph
Humidity: 88%   Direction: 200°SSW
Pressure: 30.21"   Gusts: NA
Location:  50.51°N, 3.59°E
Report Text: EBCV 252125Z AUTO 20004KT 9999 OVC041/// 11/09 Q1023 BLU
Loading
Personal Weather Stations






























Interactive Weather Map New forecast layout! Learn more

10-Day Weather Forecast

Advertisements
Track Severe Weather on mobile